sensor_id;sensor_type;location;lat;lon;timestamp;P1;durP1;ratioP1;P2;durP2;ratioP2
3155;SDS011;1588;50.892;7.082;2024-02-23T00:02:04;2.20;;;0.70;;
3155;SDS011;1588;50.892;7.082;2024-02-23T00:07:08;0.80;;;0.60;;
3155;SDS011;1588;50.892;7.082;2024-02-23T00:12:16;1.00;;;0.90;;
3155;SDS011;1588;50.892;7.082;2024-02-23T00:17:20;1.07;;;0.77;;
3155;SDS011;1588;50.892;7.082;2024-02-23T00:22:25;0.80;;;0.70;;
3155;SDS011;1588;50.892;7.082;2024-02-23T00:27:27;0.80;;;0.80;;
3155;SDS011;1588;50.892;7.082;2024-02-23T00:32:34;1.53;;;0.90;;
3155;SDS011;1588;50.892;7.082;2024-02-23T00:37:43;1.10;;;0.77;;
3155;SDS011;1588;50.892;7.082;2024-02-23T00:42:52;0.80;;;0.60;;
3155;SDS011;1588;50.892;7.082;2024-02-23T00:48:05;0.70;;;0.60;;
3155;SDS011;1588;50.892;7.082;2024-02-23T00:53:09;0.70;;;0.57;;
3155;SDS011;1588;50.892;7.082;2024-02-23T00:58:13;0.80;;;0.70;;
3155;SDS011;1588;50.892;7.082;2024-02-23T01:03:20;2.63;;;0.80;;
3155;SDS011;1588;50.892;7.082;2024-02-23T01:08:23;3.13;;;1.13;;
3155;SDS011;1588;50.892;7.082;2024-02-23T01:13:26;1.00;;;0.87;;
3155;SDS011;1588;50.892;7.082;2024-02-23T01:18:30;0.70;;;0.70;;
3155;SDS011;1588;50.892;7.082;2024-02-23T01:23:33;1.43;;;0.87;;
3155;SDS011;1588;50.892;7.082;2024-02-23T01:28:38;1.40;;;1.00;;
3155;SDS011;1588;50.892;7.082;2024-02-23T01:33:47;2.50;;;0.87;;
3155;SDS011;1588;50.892;7.082;2024-02-23T01:38:53;0.80;;;0.80;;
3155;SDS011;1588;50.892;7.082;2024-02-23T01:43:56;0.87;;;0.60;;
3155;SDS011;1588;50.892;7.082;2024-02-23T01:49:00;3.27;;;0.70;;
3155;SDS011;1588;50.892;7.082;2024-02-23T01:54:03;0.93;;;0.83;;
3155;SDS011;1588;50.892;7.082;2024-02-23T01:59:07;2.83;;;0.77;;
3155;SDS011;1588;50.892;7.082;2024-02-23T02:04:13;0.70;;;0.60;;
3155;SDS011;1588;50.892;7.082;2024-02-23T02:09:16;0.70;;;0.60;;
3155;SDS011;1588;50.892;7.082;2024-02-23T02:14:18;1.63;;;1.13;;
3155;SDS011;1588;50.892;7.082;2024-02-23T02:19:22;3.67;;;0.73;;
3155;SDS011;1588;50.892;7.082;2024-02-23T02:24:25;6.60;;;0.80;;
3155;SDS011;1588;50.892;7.082;2024-02-23T02:29:27;1.10;;;0.70;;
3155;SDS011;1588;50.892;7.082;2024-02-23T02:34:30;1.20;;;0.70;;
3155;SDS011;1588;50.892;7.082;2024-02-23T02:39:33;1.23;;;0.60;;
3155;SDS011;1588;50.892;7.082;2024-02-23T02:44:36;0.83;;;0.63;;
3155;SDS011;1588;50.892;7.082;2024-02-23T02:49:40;3.20;;;0.87;;
3155;SDS011;1588;50.892;7.082;2024-02-23T02:54:43;1.50;;;0.70;;
3155;SDS011;1588;50.892;7.082;2024-02-23T02:59:45;2.33;;;0.63;;
3155;SDS011;1588;50.892;7.082;2024-02-23T03:04:49;4.57;;;1.00;;
3155;SDS011;1588;50.892;7.082;2024-02-23T03:09:51;5.53;;;0.83;;
3155;SDS011;1588;50.892;7.082;2024-02-23T03:14:54;3.87;;;0.97;;
3155;SDS011;1588;50.892;7.082;2024-02-23T03:19:59;1.90;;;0.63;;
3155;SDS011;1588;50.892;7.082;2024-02-23T03:25:01;2.57;;;0.80;;
3155;SDS011;1588;50.892;7.082;2024-02-23T03:30:09;3.03;;;0.80;;
3155;SDS011;1588;50.892;7.082;2024-02-23T03:35:13;2.03;;;0.80;;
3155;SDS011;1588;50.892;7.082;2024-02-23T03:40:16;1.93;;;0.70;;
3155;SDS011;1588;50.892;7.082;2024-02-23T03:45:19;4.30;;;0.70;;
3155;SDS011;1588;50.892;7.082;2024-02-23T03:50:25;3.00;;;0.90;;
3155;SDS011;1588;50.892;7.082;2024-02-23T03:55:30;2.80;;;0.90;;
3155;SDS011;1588;50.892;7.082;2024-02-23T04:00:38;17.27;;;1.03;;
3155;SDS011;1588;50.892;7.082;2024-02-23T04:05:42;2.10;;;0.83;;
3155;SDS011;1588;50.892;7.082;2024-02-23T04:10:50;1.73;;;0.70;;
3155;SDS011;1588;50.892;7.082;2024-02-23T04:15:52;6.03;;;0.90;;
3155;SDS011;1588;50.892;7.082;2024-02-23T04:20:56;1.77;;;1.07;;
3155;SDS011;1588;50.892;7.082;2024-02-23T04:25:59;2.63;;;0.70;;
3155;SDS011;1588;50.892;7.082;2024-02-23T04:31:01;0.90;;;0.70;;
3155;SDS011;1588;50.892;7.082;2024-02-23T04:36:05;7.60;;;0.80;;
3155;SDS011;1588;50.892;7.082;2024-02-23T04:41:08;2.00;;;0.73;;
3155;SDS011;1588;50.892;7.082;2024-02-23T04:46:11;1.40;;;0.77;;
3155;SDS011;1588;50.892;7.082;2024-02-23T04:51:15;3.60;;;0.70;;
3155;SDS011;1588;50.892;7.082;2024-02-23T04:56:18;6.00;;;0.80;;
3155;SDS011;1588;50.892;7.082;2024-02-23T05:01:21;1.00;;;0.70;;
3155;SDS011;1588;50.892;7.082;2024-02-23T05:06:24;0.70;;;0.70;;
3155;SDS011;1588;50.892;7.082;2024-02-23T05:11:27;2.33;;;0.90;;
3155;SDS011;1588;50.892;7.082;2024-02-23T05:16:32;4.03;;;0.60;;
3155;SDS011;1588;50.892;7.082;2024-02-23T05:21:35;1.50;;;0.90;;
3155;SDS011;1588;50.892;7.082;2024-02-23T05:26:38;4.23;;;1.50;;
3155;SDS011;1588;50.892;7.082;2024-02-23T05:31:43;5.20;;;0.87;;
3155;SDS011;1588;50.892;7.082;2024-02-23T05:36:49;4.40;;;0.90;;
3155;SDS011;1588;50.892;7.082;2024-02-23T05:41:51;3.37;;;1.00;;
3155;SDS011;1588;50.892;7.082;2024-02-23T05:46:54;6.77;;;1.27;;
3155;SDS011;1588;50.892;7.082;2024-02-23T05:51:58;9.60;;;1.40;;
3155;SDS011;1588;50.892;7.082;2024-02-23T05:57:00;1.90;;;0.87;;
3155;SDS011;1588;50.892;7.082;2024-02-23T06:02:05;0.97;;;0.80;;
3155;SDS011;1588;50.892;7.082;2024-02-23T06:07:09;4.40;;;1.20;;
3155;SDS011;1588;50.892;7.082;2024-02-23T06:12:11;6.20;;;1.40;;
3155;SDS011;1588;50.892;7.082;2024-02-23T06:17:13;5.93;;;1.03;;
3155;SDS011;1588;50.892;7.082;2024-02-23T06:22:17;3.90;;;1.10;;
3155;SDS011;1588;50.892;7.082;2024-02-23T06:27:21;4.37;;;1.03;;
3155;SDS011;1588;50.892;7.082;2024-02-23T06:32:25;1.70;;;0.97;;
3155;SDS011;1588;50.892;7.082;2024-02-23T06:37:29;6.20;;;1.40;;
3155;SDS011;1588;50.892;7.082;2024-02-23T06:42:32;3.13;;;1.53;;
3155;SDS011;1588;50.892;7.082;2024-02-23T06:47:34;1.87;;;1.13;;
3155;SDS011;1588;50.892;7.082;2024-02-23T06:52:38;3.07;;;1.30;;
3155;SDS011;1588;50.892;7.082;2024-02-23T06:57:41;7.20;;;1.53;;
3155;SDS011;1588;50.892;7.082;2024-02-23T07:02:53;1.97;;;1.10;;
3155;SDS011;1588;50.892;7.082;2024-02-23T07:07:57;8.13;;;1.03;;
3155;SDS011;1588;50.892;7.082;2024-02-23T07:12:59;8.70;;;1.30;;
3155;SDS011;1588;50.892;7.082;2024-02-23T07:18:02;7.87;;;1.80;;
3155;SDS011;1588;50.892;7.082;2024-02-23T07:23:07;6.17;;;1.20;;
3155;SDS011;1588;50.892;7.082;2024-02-23T07:28:10;2.00;;;1.03;;
3155;SDS011;1588;50.892;7.082;2024-02-23T07:33:13;6.10;;;1.27;;
3155;SDS011;1588;50.892;7.082;2024-02-23T07:38:18;6.30;;;1.77;;
3155;SDS011;1588;50.892;7.082;2024-02-23T07:43:21;4.67;;;1.30;;
3155;SDS011;1588;50.892;7.082;2024-02-23T07:48:37;1.40;;;1.20;;
3155;SDS011;1588;50.892;7.082;2024-02-23T07:53:45;3.00;;;1.10;;
3155;SDS011;1588;50.892;7.082;2024-02-23T07:59:03;2.00;;;0.90;;
3155;SDS011;1588;50.892;7.082;2024-02-23T08:04:05;2.87;;;0.90;;
3155;SDS011;1588;50.892;7.082;2024-02-23T08:09:09;7.03;;;1.40;;
3155;SDS011;1588;50.892;7.082;2024-02-23T08:14:12;3.33;;;1.00;;
3155;SDS011;1588;50.892;7.082;2024-02-23T08:19:15;1.13;;;0.90;;
3155;SDS011;1588;50.892;7.082;2024-02-23T08:24:29;6.00;;;1.10;;
3155;SDS011;1588;50.892;7.082;2024-02-23T08:29:32;2.70;;;1.37;;
3155;SDS011;1588;50.892;7.082;2024-02-23T08:34:34;6.73;;;1.10;;
3155;SDS011;1588;50.892;7.082;2024-02-23T08:39:38;6.73;;;1.40;;
3155;SDS011;1588;50.892;7.082;2024-02-23T08:44:40;5.37;;;1.30;;
3155;SDS011;1588;50.892;7.082;2024-02-23T08:49:43;6.40;;;1.30;;
3155;SDS011;1588;50.892;7.082;2024-02-23T08:54:47;5.87;;;1.00;;
3155;SDS011;1588;50.892;7.082;2024-02-23T08:59:50;4.17;;;1.30;;
3155;SDS011;1588;50.892;7.082;2024-02-23T09:04:52;1.93;;;0.70;;
3155;SDS011;1588;50.892;7.082;2024-02-23T09:09:56;1.10;;;0.90;;
3155;SDS011;1588;50.892;7.082;2024-02-23T09:14:58;1.40;;;1.27;;
3155;SDS011;1588;50.892;7.082;2024-02-23T09:20:01;5.07;;;0.97;;
3155;SDS011;1588;50.892;7.082;2024-02-23T09:25:05;2.90;;;1.00;;
3155;SDS011;1588;50.892;7.082;2024-02-23T09:30:09;3.50;;;1.17;;
3155;SDS011;1588;50.892;7.082;2024-02-23T09:35:14;3.53;;;1.00;;
3155;SDS011;1588;50.892;7.082;2024-02-23T09:40:17;4.03;;;0.80;;
3155;SDS011;1588;50.892;7.082;2024-02-23T09:45:20;1.33;;;0.77;;
3155;SDS011;1588;50.892;7.082;2024-02-23T09:50:24;6.60;;;0.80;;
3155;SDS011;1588;50.892;7.082;2024-02-23T09:55:34;4.00;;;0.80;;
3155;SDS011;1588;50.892;7.082;2024-02-23T10:00:47;3.33;;;0.87;;
3155;SDS011;1588;50.892;7.082;2024-02-23T10:05:51;1.47;;;0.90;;
3155;SDS011;1588;50.892;7.082;2024-02-23T10:11:02;2.53;;;0.97;;
3155;SDS011;1588;50.892;7.082;2024-02-23T10:16:08;1.53;;;0.70;;
3155;SDS011;1588;50.892;7.082;2024-02-23T10:21:11;3.37;;;0.87;;
3155;SDS011;1588;50.892;7.082;2024-02-23T10:26:18;0.77;;;0.57;;
3155;SDS011;1588;50.892;7.082;2024-02-23T10:31:23;7.90;;;1.00;;
3155;SDS011;1588;50.892;7.082;2024-02-23T10:36:27;2.07;;;0.67;;
3155;SDS011;1588;50.892;7.082;2024-02-23T10:41:35;3.60;;;0.83;;
3155;SDS011;1588;50.892;7.082;2024-02-23T10:46:38;2.63;;;0.80;;
3155;SDS011;1588;50.892;7.082;2024-02-23T10:51:42;2.33;;;0.80;;
3155;SDS011;1588;50.892;7.082;2024-02-23T10:56:50;2.73;;;0.90;;
3155;SDS011;1588;50.892;7.082;2024-02-23T11:01:55;4.20;;;0.93;;
3155;SDS011;1588;50.892;7.082;2024-02-23T11:07:02;1.80;;;0.70;;
3155;SDS011;1588;50.892;7.082;2024-02-23T11:12:23;3.93;;;1.00;;
3155;SDS011;1588;50.892;7.082;2024-02-23T11:17:35;2.93;;;0.80;;
3155;SDS011;1588;50.892;7.082;2024-02-23T11:22:39;3.37;;;0.90;;
3155;SDS011;1588;50.892;7.082;2024-02-23T11:27:44;1.60;;;0.77;;
3155;SDS011;1588;50.892;7.082;2024-02-23T11:32:51;1.83;;;0.80;;
3155;SDS011;1588;50.892;7.082;2024-02-23T11:38:01;4.30;;;0.90;;
3155;SDS011;1588;50.892;7.082;2024-02-23T11:43:18;1.10;;;0.67;;
3155;SDS011;1588;50.892;7.082;2024-02-23T11:48:23;0.73;;;0.70;;
3155;SDS011;1588;50.892;7.082;2024-02-23T11:53:27;8.97;;;0.90;;
3155;SDS011;1588;50.892;7.082;2024-02-23T11:58:33;2.30;;;0.90;;
3155;SDS011;1588;50.892;7.082;2024-02-23T12:03:43;3.93;;;0.90;;
3155;SDS011;1588;50.892;7.082;2024-02-23T12:08:46;4.17;;;1.70;;
3155;SDS011;1588;50.892;7.082;2024-02-23T12:13:51;2.30;;;0.80;;
3155;SDS011;1588;50.892;7.082;2024-02-23T12:18:54;3.20;;;1.07;;
3155;SDS011;1588;50.892;7.082;2024-02-23T12:23:57;1.50;;;1.10;;
3155;SDS011;1588;50.892;7.082;2024-02-23T12:29:04;5.67;;;0.97;;
3155;SDS011;1588;50.892;7.082;2024-02-23T12:34:11;1.40;;;0.70;;
3155;SDS011;1588;50.892;7.082;2024-02-23T12:39:22;2.03;;;0.80;;
3155;SDS011;1588;50.892;7.082;2024-02-23T12:44:37;2.40;;;1.00;;
3155;SDS011;1588;50.892;7.082;2024-02-23T12:49:40;14.20;;;1.10;;
3155;SDS011;1588;50.892;7.082;2024-02-23T12:54:42;2.77;;;1.27;;
3155;SDS011;1588;50.892;7.082;2024-02-23T12:59:46;6.73;;;1.07;;
3155;SDS011;1588;50.892;7.082;2024-02-23T13:04:49;3.80;;;0.90;;
3155;SDS011;1588;50.892;7.082;2024-02-23T13:09:51;1.50;;;0.90;;
3155;SDS011;1588;50.892;7.082;2024-02-23T13:14:57;3.20;;;0.97;;
3155;SDS011;1588;50.892;7.082;2024-02-23T13:20:25;1.33;;;0.70;;
3155;SDS011;1588;50.892;7.082;2024-02-23T13:25:28;2.90;;;0.80;;
3155;SDS011;1588;50.892;7.082;2024-02-23T13:30:44;2.43;;;1.20;;
3155;SDS011;1588;50.892;7.082;2024-02-23T13:35:46;1.83;;;1.00;;
3155;SDS011;1588;50.892;7.082;2024-02-23T13:40:49;4.47;;;1.07;;
3155;SDS011;1588;50.892;7.082;2024-02-23T13:45:53;2.43;;;1.10;;
3155;SDS011;1588;50.892;7.082;2024-02-23T13:50:57;5.40;;;1.13;;
3155;SDS011;1588;50.892;7.082;2024-02-23T13:56:03;1.40;;;0.93;;
3155;SDS011;1588;50.892;7.082;2024-02-23T14:01:07;3.23;;;1.10;;
3155;SDS011;1588;50.892;7.082;2024-02-23T14:06:10;2.90;;;1.10;;
3155;SDS011;1588;50.892;7.082;2024-02-23T14:11:14;1.17;;;0.93;;
3155;SDS011;1588;50.892;7.082;2024-02-23T14:16:18;4.03;;;0.70;;
3155;SDS011;1588;50.892;7.082;2024-02-23T14:21:21;3.23;;;1.07;;
3155;SDS011;1588;50.892;7.082;2024-02-23T14:26:26;1.00;;;0.70;;
3155;SDS011;1588;50.892;7.082;2024-02-23T14:31:30;3.33;;;0.80;;
3155;SDS011;1588;50.892;7.082;2024-02-23T14:36:35;2.93;;;1.07;;
3155;SDS011;1588;50.892;7.082;2024-02-23T14:41:39;1.67;;;1.10;;
3155;SDS011;1588;50.892;7.082;2024-02-23T14:46:52;1.50;;;1.07;;
3155;SDS011;1588;50.892;7.082;2024-02-23T14:51:54;1.83;;;1.10;;
3155;SDS011;1588;50.892;7.082;2024-02-23T14:56:57;2.10;;;1.00;;
3155;SDS011;1588;50.892;7.082;2024-02-23T15:02:01;4.90;;;1.13;;
3155;SDS011;1588;50.892;7.082;2024-02-23T15:07:05;3.60;;;1.40;;
3155;SDS011;1588;50.892;7.082;2024-02-23T15:12:30;1.33;;;1.00;;
3155;SDS011;1588;50.892;7.082;2024-02-23T15:17:34;3.93;;;1.03;;
3155;SDS011;1588;50.892;7.082;2024-02-23T15:22:39;2.90;;;1.37;;
3155;SDS011;1588;50.892;7.082;2024-02-23T15:27:43;2.50;;;1.47;;
3155;SDS011;1588;50.892;7.082;2024-02-23T15:32:56;1.67;;;0.90;;
3155;SDS011;1588;50.892;7.082;2024-02-23T15:38:02;3.43;;;1.43;;
3155;SDS011;1588;50.892;7.082;2024-02-23T15:43:05;2.10;;;0.90;;
3155;SDS011;1588;50.892;7.082;2024-02-23T15:48:09;2.80;;;0.90;;
3155;SDS011;1588;50.892;7.082;2024-02-23T15:53:14;1.00;;;0.90;;
3155;SDS011;1588;50.892;7.082;2024-02-23T15:58:16;3.77;;;1.13;;
3155;SDS011;1588;50.892;7.082;2024-02-23T16:03:22;1.43;;;0.93;;
3155;SDS011;1588;50.892;7.082;2024-02-23T16:08:37;2.47;;;1.10;;
3155;SDS011;1588;50.892;7.082;2024-02-23T16:13:41;3.83;;;1.10;;
3155;SDS011;1588;50.892;7.082;2024-02-23T16:18:45;3.97;;;1.10;;
3155;SDS011;1588;50.892;7.082;2024-02-23T16:23:48;1.03;;;0.90;;
3155;SDS011;1588;50.892;7.082;2024-02-23T16:28:50;1.67;;;0.90;;
3155;SDS011;1588;50.892;7.082;2024-02-23T16:33:54;1.27;;;1.00;;
3155;SDS011;1588;50.892;7.082;2024-02-23T16:38:56;3.40;;;1.07;;
3155;SDS011;1588;50.892;7.082;2024-02-23T16:43:58;4.00;;;1.20;;
3155;SDS011;1588;50.892;7.082;2024-02-23T16:49:03;5.33;;;1.37;;
3155;SDS011;1588;50.892;7.082;2024-02-23T16:54:08;1.33;;;0.87;;
3155;SDS011;1588;50.892;7.082;2024-02-23T16:59:14;6.73;;;1.47;;
3155;SDS011;1588;50.892;7.082;2024-02-23T17:04:22;3.43;;;1.00;;
3155;SDS011;1588;50.892;7.082;2024-02-23T17:09:26;3.87;;;1.73;;
3155;SDS011;1588;50.892;7.082;2024-02-23T17:14:31;3.40;;;1.00;;
3155;SDS011;1588;50.892;7.082;2024-02-23T17:19:36;3.57;;;1.40;;
3155;SDS011;1588;50.892;7.082;2024-02-23T17:24:39;5.17;;;1.47;;
3155;SDS011;1588;50.892;7.082;2024-02-23T17:29:42;2.33;;;1.60;;
3155;SDS011;1588;50.892;7.082;2024-02-23T17:34:48;3.20;;;1.27;;
3155;SDS011;1588;50.892;7.082;2024-02-23T17:39:51;2.43;;;1.43;;
3155;SDS011;1588;50.892;7.082;2024-02-23T17:45:03;11.53;;;1.20;;
3155;SDS011;1588;50.892;7.082;2024-02-23T17:50:08;3.53;;;1.00;;
3155;SDS011;1588;50.892;7.082;2024-02-23T17:55:13;3.33;;;1.07;;
3155;SDS011;1588;50.892;7.082;2024-02-23T18:00:34;4.27;;;1.10;;
3155;SDS011;1588;50.892;7.082;2024-02-23T18:05:38;4.77;;;1.43;;
3155;SDS011;1588;50.892;7.082;2024-02-23T18:10:40;2.30;;;1.13;;
3155;SDS011;1588;50.892;7.082;2024-02-23T18:15:43;1.73;;;0.90;;
3155;SDS011;1588;50.892;7.082;2024-02-23T18:20:46;3.13;;;1.60;;
3155;SDS011;1588;50.892;7.082;2024-02-23T18:25:52;1.73;;;0.97;;
3155;SDS011;1588;50.892;7.082;2024-02-23T18:30:54;2.13;;;1.27;;
3155;SDS011;1588;50.892;7.082;2024-02-23T18:35:58;2.77;;;0.97;;
3155;SDS011;1588;50.892;7.082;2024-02-23T18:41:00;1.37;;;0.97;;
3155;SDS011;1588;50.892;7.082;2024-02-23T18:46:04;2.30;;;1.10;;
3155;SDS011;1588;50.892;7.082;2024-02-23T18:51:08;1.53;;;1.20;;
3155;SDS011;1588;50.892;7.082;2024-02-23T18:56:11;5.03;;;1.50;;
3155;SDS011;1588;50.892;7.082;2024-02-23T19:01:16;1.10;;;1.00;;
3155;SDS011;1588;50.892;7.082;2024-02-23T19:06:33;5.20;;;1.30;;
3155;SDS011;1588;50.892;7.082;2024-02-23T19:11:35;7.37;;;1.73;;
3155;SDS011;1588;50.892;7.082;2024-02-23T19:16:38;7.13;;;1.87;;
3155;SDS011;1588;50.892;7.082;2024-02-23T19:21:41;1.87;;;1.30;;
3155;SDS011;1588;50.892;7.082;2024-02-23T19:26:44;4.77;;;1.30;;
3155;SDS011;1588;50.892;7.082;2024-02-23T19:31:48;3.90;;;1.20;;
3155;SDS011;1588;50.892;7.082;2024-02-23T19:36:52;3.97;;;1.53;;
3155;SDS011;1588;50.892;7.082;2024-02-23T19:41:54;5.43;;;1.50;;
3155;SDS011;1588;50.892;7.082;2024-02-23T19:46:57;9.13;;;1.70;;
3155;SDS011;1588;50.892;7.082;2024-02-23T19:52:01;3.33;;;1.17;;
3155;SDS011;1588;50.892;7.082;2024-02-23T19:57:04;2.60;;;1.67;;
3155;SDS011;1588;50.892;7.082;2024-02-23T20:02:07;1.63;;;1.20;;
3155;SDS011;1588;50.892;7.082;2024-02-23T20:07:26;1.70;;;1.17;;
3155;SDS011;1588;50.892;7.082;2024-02-23T20:12:39;2.20;;;1.27;;
3155;SDS011;1588;50.892;7.082;2024-02-23T20:17:42;4.80;;;1.40;;
3155;SDS011;1588;50.892;7.082;2024-02-23T20:23:08;6.10;;;1.70;;
3155;SDS011;1588;50.892;7.082;2024-02-23T20:28:11;9.20;;;1.87;;
3155;SDS011;1588;50.892;7.082;2024-02-23T20:33:13;2.77;;;1.80;;
3155;SDS011;1588;50.892;7.082;2024-02-23T20:38:17;4.33;;;1.73;;
3155;SDS011;1588;50.892;7.082;2024-02-23T20:43:19;1.30;;;1.20;;
3155;SDS011;1588;50.892;7.082;2024-02-23T20:48:23;7.07;;;1.20;;
3155;SDS011;1588;50.892;7.082;2024-02-23T20:53:27;1.83;;;1.20;;
3155;SDS011;1588;50.892;7.082;2024-02-23T20:58:29;2.40;;;1.10;;
3155;SDS011;1588;50.892;7.082;2024-02-23T21:03:32;3.00;;;1.00;;
3155;SDS011;1588;50.892;7.082;2024-02-23T21:08:37;5.23;;;1.47;;
3155;SDS011;1588;50.892;7.082;2024-02-23T21:13:46;3.17;;;1.17;;
3155;SDS011;1588;50.892;7.082;2024-02-23T21:18:49;10.57;;;1.23;;
3155;SDS011;1588;50.892;7.082;2024-02-23T21:23:53;1.30;;;1.00;;
3155;SDS011;1588;50.892;7.082;2024-02-23T21:28:55;2.03;;;1.10;;
3155;SDS011;1588;50.892;7.082;2024-02-23T21:34:03;6.63;;;1.20;;
3155;SDS011;1588;50.892;7.082;2024-02-23T21:39:08;2.13;;;1.63;;
3155;SDS011;1588;50.892;7.082;2024-02-23T21:44:14;2.90;;;1.43;;
3155;SDS011;1588;50.892;7.082;2024-02-23T21:49:17;4.07;;;1.63;;
3155;SDS011;1588;50.892;7.082;2024-02-23T21:54:21;6.70;;;1.60;;
3155;SDS011;1588;50.892;7.082;2024-02-23T21:59:25;2.23;;;1.77;;
3155;SDS011;1588;50.892;7.082;2024-02-23T22:04:27;4.00;;;1.93;;
3155;SDS011;1588;50.892;7.082;2024-02-23T22:09:31;3.00;;;1.80;;
3155;SDS011;1588;50.892;7.082;2024-02-23T22:14:34;3.60;;;1.97;;
3155;SDS011;1588;50.892;7.082;2024-02-23T22:19:36;2.60;;;1.57;;
3155;SDS011;1588;50.892;7.082;2024-02-23T22:24:40;2.63;;;1.60;;
3155;SDS011;1588;50.892;7.082;2024-02-23T22:29:42;3.73;;;1.20;;
3155;SDS011;1588;50.892;7.082;2024-02-23T22:34:46;1.60;;;1.37;;
3155;SDS011;1588;50.892;7.082;2024-02-23T22:39:50;4.20;;;1.50;;
3155;SDS011;1588;50.892;7.082;2024-02-23T22:44:52;3.07;;;1.30;;
3155;SDS011;1588;50.892;7.082;2024-02-23T22:49:55;11.93;;;1.50;;
3155;SDS011;1588;50.892;7.082;2024-02-23T22:55:12;3.57;;;1.53;;
3155;SDS011;1588;50.892;7.082;2024-02-23T23:00:14;3.50;;;1.30;;
3155;SDS011;1588;50.892;7.082;2024-02-23T23:05:17;1.47;;;1.37;;
3155;SDS011;1588;50.892;7.082;2024-02-23T23:10:23;5.37;;;1.73;;
3155;SDS011;1588;50.892;7.082;2024-02-23T23:15:26;1.83;;;1.60;;
3155;SDS011;1588;50.892;7.082;2024-02-23T23:20:29;3.50;;;1.70;;
3155;SDS011;1588;50.892;7.082;2024-02-23T23:25:33;2.80;;;1.50;;
3155;SDS011;1588;50.892;7.082;2024-02-23T23:30:35;2.07;;;1.50;;
3155;SDS011;1588;50.892;7.082;2024-02-23T23:35:37;1.97;;;1.33;;
3155;SDS011;1588;50.892;7.082;2024-02-23T23:40:41;2.33;;;1.53;;
3155;SDS011;1588;50.892;7.082;2024-02-23T23:45:44;2.50;;;1.70;;
3155;SDS011;1588;50.892;7.082;2024-02-23T23:50:46;6.90;;;1.50;;
3155;SDS011;1588;50.892;7.082;2024-02-23T23:55:50;3.37;;;1.50;;
